createdAt,value
2022-11-10T00:07:30.456Z,50.908169
2022-11-10T00:08:30.457Z,50.908070
2022-11-10T00:09:30.442Z,50.908134
2022-11-10T00:10:30.441Z,50.908108
2022-11-10T00:11:30.450Z,50.908073
2022-11-10T00:12:30.422Z,50.908131
2022-11-10T00:13:30.413Z,50.908112
2022-11-10T00:14:30.410Z,50.908085
2022-11-10T00:15:30.394Z,50.907974
2022-11-10T00:16:30.420Z,50.908138
2022-11-10T00:17:30.379Z,50.908108
2022-11-10T00:18:30.368Z,50.908108
2022-11-10T00:19:30.364Z,50.908073
2022-11-10T00:20:30.354Z,50.908127
2022-11-10T00:21:30.378Z,50.908058
2022-11-10T00:22:30.338Z,50.907963
2022-11-10T00:23:30.335Z,50.908073
2022-11-10T00:24:30.323Z,50.908104
2022-11-10T00:25:30.314Z,50.908154
2022-11-10T00:26:30.332Z,50.908108
2022-11-10T00:27:30.295Z,50.908134
2022-11-10T00:28:30.289Z,50.908207
2022-11-10T00:29:30.275Z,50.908127
2022-11-10T00:30:30.279Z,50.908058
2022-11-10T00:31:30.293Z,50.908066
2022-11-10T00:32:30.261Z,50.908096
2022-11-10T00:33:30.245Z,50.908089
2022-11-10T00:34:30.241Z,50.908089
2022-11-10T00:35:30.227Z,50.908089
2022-11-10T00:36:30.245Z,50.908089
2022-11-10T00:37:30.220Z,50.908089
2022-11-10T00:38:30.209Z,50.908089
2022-11-10T00:39:30.211Z,50.908089
2022-11-10T00:40:30.224Z,50.908089
2022-11-10T00:41:30.213Z,50.908089
2022-11-10T00:42:30.173Z,50.908089
2022-11-10T00:43:30.481Z,50.908089
2022-11-10T00:44:30.168Z,50.908089
2022-11-10T00:45:30.149Z,50.908089
2022-11-10T00:46:30.180Z,50.908089
2022-11-10T00:47:30.138Z,50.908089
2022-11-10T00:48:30.127Z,50.908089
2022-11-10T00:49:30.120Z,50.908089
2022-11-10T00:50:30.110Z,50.908089
2022-11-10T00:51:30.098Z,50.908089
2022-11-10T00:52:30.117Z,50.908089
2022-11-10T00:53:30.086Z,50.908089
2022-11-10T00:54:30.079Z,50.908089
2022-11-10T00:55:30.069Z,50.908089
2022-11-10T00:56:30.067Z,50.908104
2022-11-10T00:57:30.088Z,50.908142
2022-11-10T00:58:30.044Z,50.907963
2022-11-10T00:59:30.052Z,50.908070
2022-11-10T01:00:30.045Z,50.908127
2022-11-10T01:01:30.071Z,50.908195
2022-11-10T01:02:30.046Z,50.908115
2022-11-10T01:03:30.006Z,50.908062
2022-11-10T01:04:30.000Z,50.908054
2022-11-10T01:05:29.995Z,50.908108
2022-11-10T01:06:30.011Z,50.908119
2022-11-10T01:07:29.999Z,50.908054
2022-11-10T01:08:29.965Z,50.908089
2022-11-10T01:09:29.964Z,50.908054
2022-11-10T01:10:29.958Z,50.908039
2022-11-10T01:11:29.951Z,50.908043
2022-11-10T01:12:29.980Z,50.908112
2022-11-10T01:13:29.928Z,50.908085
2022-11-10T01:14:29.923Z,50.908115
2022-11-10T01:15:29.918Z,50.908108
2022-11-10T01:16:29.939Z,50.908066
2022-11-10T01:17:29.897Z,50.908039
2022-11-10T01:18:29.896Z,50.908131
2022-11-10T01:19:29.881Z,50.908092
2022-11-10T01:20:29.882Z,50.908028
2022-11-10T01:21:29.870Z,50.908062
2022-11-10T01:22:29.880Z,50.908100
2022-11-10T01:23:29.847Z,50.908089
2022-11-10T01:24:29.837Z,50.907993
2022-11-10T01:25:29.836Z,50.908081
2022-11-10T01:26:29.823Z,50.908100
2022-11-10T01:27:29.845Z,50.908165
2022-11-10T01:28:29.802Z,50.908108
2022-11-10T01:29:29.798Z,50.908051
2022-11-10T01:30:29.787Z,50.908043
2022-11-10T01:31:29.804Z,50.908058
2022-11-10T01:32:29.772Z,50.908096
2022-11-10T01:33:29.762Z,50.908089
2022-11-10T01:34:29.761Z,50.908081
2022-11-10T01:35:29.748Z,50.908077
2022-11-10T01:36:29.761Z,50.908096
2022-11-10T01:37:29.744Z,50.908047
2022-11-10T01:38:29.718Z,50.908043
2022-11-10T01:39:29.717Z,50.908070
2022-11-10T01:40:29.747Z,50.908005
2022-11-10T01:41:29.730Z,50.907948
2022-11-10T01:42:29.713Z,50.907990
2022-11-10T01:43:29.686Z,50.907993
2022-11-10T01:44:29.675Z,50.908035
2022-11-10T01:45:29.675Z,50.908028
2022-11-10T01:46:29.688Z,50.908070
2022-11-10T01:47:29.657Z,50.908092
2022-11-10T01:48:29.653Z,50.908123
2022-11-10T01:49:29.639Z,50.908054
2022-11-10T01:50:29.630Z,50.908009
2022-11-10T01:51:29.621Z,50.908043
2022-11-10T01:52:29.647Z,50.908016
2022-11-10T01:53:29.607Z,50.908039
2022-11-10T01:54:29.592Z,50.908058
2022-11-10T01:55:29.591Z,50.908115
2022-11-10T01:56:29.582Z,50.908195
2022-11-10T01:57:29.597Z,50.908039
2022-11-10T01:58:29.565Z,50.908077
2022-11-10T01:59:29.556Z,50.908039
2022-11-10T02:00:29.580Z,50.908005
2022-11-10T02:01:29.544Z,50.907940
2022-11-10T02:02:29.560Z,50.908031
2022-11-10T02:03:29.526Z,50.908066
2022-11-10T02:04:29.521Z,50.908081
2022-11-10T02:05:29.517Z,50.908058
2022-11-10T02:06:29.578Z,50.908131
2022-11-10T02:07:29.524Z,50.908058
2022-11-10T02:08:29.484Z,50.908173
2022-11-10T02:09:29.476Z,50.908215
2022-11-10T02:10:29.477Z,50.908070
2022-11-10T02:11:29.464Z,50.908035
2022-11-10T02:12:29.487Z,50.908058
2022-11-10T02:13:29.446Z,50.908031
2022-11-10T02:14:29.440Z,50.907990
2022-11-10T02:15:29.433Z,50.908012
2022-11-10T02:16:29.423Z,50.908123
2022-11-10T02:17:29.439Z,50.908173
2022-11-10T02:18:29.411Z,50.908131
2022-11-10T02:19:29.392Z,50.908142
2022-11-10T02:20:29.394Z,50.908138
2022-11-10T02:21:29.386Z,50.908146
2022-11-10T02:22:29.404Z,50.908134
2022-11-10T02:23:29.370Z,50.908184
2022-11-10T02:24:29.356Z,50.908142
2022-11-10T02:25:29.347Z,50.908146
2022-11-10T02:26:29.344Z,50.908161
2022-11-10T02:27:29.363Z,50.908112
2022-11-10T02:28:29.331Z,50.908142
2022-11-10T02:29:29.314Z,50.908146
2022-11-10T02:30:29.313Z,50.908146
2022-11-10T02:31:29.305Z,50.908146
2022-11-10T02:32:29.331Z,50.908203
2022-11-10T02:33:29.293Z,50.908203
2022-11-10T02:34:29.279Z,50.908203
2022-11-10T02:35:29.271Z,50.908142
2022-11-10T02:36:29.291Z,50.908119
2022-11-10T02:37:29.255Z,50.908146
2022-11-10T02:38:29.251Z,50.908123
2022-11-10T02:39:29.244Z,50.908131
2022-11-10T02:40:29.236Z,50.908199
2022-11-10T02:41:29.231Z,50.908203
2022-11-10T02:42:29.249Z,50.908195
2022-11-10T02:43:29.213Z,50.908215
2022-11-10T02:44:29.206Z,50.908237
2022-11-10T02:45:29.200Z,50.908211
2022-11-10T02:46:29.194Z,50.908226
2022-11-10T02:47:29.212Z,50.908272
2022-11-10T02:48:29.180Z,50.908199
2022-11-10T02:49:29.162Z,50.908157
2022-11-10T02:50:29.162Z,50.908154
2022-11-10T02:51:29.147Z,50.908169
2022-11-10T02:52:29.175Z,50.908131
2022-11-10T02:53:29.136Z,50.908108
2022-11-10T02:54:29.127Z,50.908169
2022-11-10T02:55:29.120Z,50.908138
2022-11-10T02:56:29.116Z,50.908146
2022-11-10T02:57:29.130Z,50.908161
2022-11-10T02:58:29.099Z,50.908127
2022-11-10T02:59:29.099Z,50.908104
2022-11-10T03:00:29.076Z,50.908123
2022-11-10T03:01:29.151Z,50.908108
2022-11-10T03:02:32.200Z,50.908115
2022-11-10T03:03:30.054Z,50.908119
2022-11-10T03:04:29.047Z,50.908127
2022-11-10T03:05:29.037Z,50.908028
2022-11-10T03:06:29.032Z,50.908115
2022-11-10T03:07:29.042Z,50.908123
2022-11-10T03:08:29.012Z,50.908115
2022-11-10T03:09:29.003Z,50.908131
2022-11-10T03:10:29.001Z,50.908119
2022-11-10T03:11:32.227Z,50.908100
2022-11-10T03:12:30.006Z,50.908142
2022-11-10T03:13:40.235Z,50.908146
2022-11-10T03:14:30.959Z,50.908131
2022-11-10T03:15:28.952Z,50.908134
2022-11-10T03:16:28.949Z,50.908161
2022-11-10T03:17:28.968Z,50.908085
2022-11-10T03:18:28.926Z,50.908077
2022-11-10T03:19:28.934Z,50.908123
2022-11-10T03:20:28.916Z,50.908115
2022-11-10T03:21:28.905Z,50.908119
2022-11-10T03:22:28.922Z,50.908131
2022-11-10T03:23:28.894Z,50.908134
2022-11-10T03:24:28.882Z,50.908161
2022-11-10T03:25:28.865Z,50.908146
2022-11-10T03:26:28.859Z,50.908108
2022-11-10T03:27:28.884Z,50.908161
2022-11-10T03:28:28.850Z,50.908157
2022-11-10T03:29:28.843Z,50.908142
2022-11-10T03:30:28.816Z,50.908108
2022-11-10T03:31:29.821Z,50.908127
2022-11-10T03:32:28.824Z,50.908195
2022-11-10T03:33:28.830Z,50.908157
2022-11-10T03:34:31.776Z,50.908134
2022-11-10T03:35:29.799Z,50.908123
2022-11-10T03:36:28.783Z,50.908184
2022-11-10T03:37:28.776Z,50.908142
2022-11-10T03:38:28.796Z,50.908112
2022-11-10T03:39:28.755Z,50.908115
2022-11-10T03:40:28.755Z,50.908123
2022-11-10T03:41:28.757Z,50.908100
2022-11-10T03:42:28.735Z,50.908115
2022-11-10T03:43:28.759Z,50.908123
2022-11-10T03:44:28.728Z,50.908169
2022-11-10T03:45:28.720Z,50.908115
2022-11-10T03:46:28.706Z,50.908180
2022-11-10T03:47:28.700Z,50.908134
2022-11-10T03:48:28.713Z,50.908134
2022-11-10T03:49:28.684Z,50.908150
2022-11-10T03:50:28.674Z,50.908146
2022-11-10T03:51:28.663Z,50.908123
2022-11-10T03:52:28.654Z,50.908131
2022-11-10T03:53:28.671Z,50.908176
2022-11-10T03:54:28.644Z,50.908161
2022-11-10T03:55:28.630Z,50.908154
2022-11-10T03:56:28.623Z,50.908169
2022-11-10T03:57:28.656Z,50.908154
2022-11-10T03:58:28.611Z,50.908146
2022-11-10T03:59:28.607Z,50.908123
2022-11-10T04:00:28.599Z,50.908092
2022-11-10T04:01:28.647Z,50.908173
2022-11-10T04:02:28.606Z,50.908192
2022-11-10T04:03:28.578Z,50.908073
2022-11-10T04:04:28.562Z,50.908142
2022-11-10T04:05:28.559Z,50.908131
2022-11-10T04:06:28.553Z,50.908127
2022-11-10T04:07:28.548Z,50.908104
2022-11-10T04:08:28.561Z,50.908138
2022-11-10T04:09:28.529Z,50.908138
2022-11-10T04:10:28.524Z,50.908150
2022-11-10T04:11:28.509Z,50.908154
2022-11-10T04:12:28.507Z,50.908161
2022-11-10T04:13:28.522Z,50.908138
2022-11-10T04:14:28.480Z,50.908123
2022-11-10T04:15:28.475Z,50.908115
2022-11-10T04:16:28.472Z,50.908142
2022-11-10T04:17:28.468Z,50.908165
2022-11-10T04:18:28.486Z,50.908157
2022-11-10T04:19:28.447Z,50.908169
2022-11-10T04:20:28.445Z,50.908142
2022-11-10T04:21:28.432Z,50.908157
2022-11-10T04:22:28.437Z,50.908180
2022-11-10T04:23:28.444Z,50.908180
2022-11-10T04:24:28.414Z,50.908157
2022-11-10T04:25:28.396Z,50.908134
2022-11-10T04:26:28.447Z,50.908142
2022-11-10T04:27:28.381Z,50.908146
2022-11-10T04:28:28.408Z,50.908146
2022-11-10T04:29:28.374Z,50.908199
2022-11-10T04:30:28.361Z,50.908131
2022-11-10T04:31:28.349Z,50.908112
2022-11-10T04:32:28.346Z,50.908115
2022-11-10T04:33:28.364Z,50.908104
2022-11-10T04:34:28.336Z,50.908127
2022-11-10T04:35:28.326Z,50.908138
2022-11-10T04:36:28.310Z,50.908150
2022-11-10T04:37:28.306Z,50.908134
2022-11-10T04:38:28.326Z,50.908115
2022-11-10T04:39:28.289Z,50.908142
2022-11-10T04:40:28.284Z,50.908119
2022-11-10T04:41:28.335Z,50.908104
2022-11-10T04:42:28.266Z,50.908066
2022-11-10T04:43:28.287Z,50.908127
2022-11-10T04:44:28.249Z,50.908100
2022-11-10T04:45:28.231Z,50.908134
2022-11-10T04:46:29.238Z,50.908085
2022-11-10T04:47:28.228Z,50.908054
2022-11-10T04:48:28.258Z,50.908062
2022-11-10T04:49:28.221Z,50.908085
2022-11-10T04:50:28.213Z,50.908131
2022-11-10T04:51:28.400Z,50.908142
2022-11-10T04:52:28.185Z,50.908104
2022-11-10T04:53:29.204Z,50.908039
2022-11-10T04:54:28.175Z,50.908039
2022-11-10T04:55:28.161Z,50.908070
2022-11-10T04:56:28.189Z,50.908092
2022-11-10T04:57:28.147Z,50.908104
2022-11-10T04:58:28.167Z,50.908112
2022-11-10T04:59:28.136Z,50.908031
2022-11-10T05:00:28.147Z,50.908043
2022-11-10T05:01:28.119Z,50.908085
2022-11-10T05:02:28.109Z,50.908070
2022-11-10T05:03:28.130Z,50.908073
2022-11-10T05:04:28.097Z,50.908081
2022-11-10T05:05:28.105Z,50.908012
2022-11-10T05:06:28.074Z,50.908096
2022-11-10T05:07:28.068Z,50.908081
2022-11-10T05:08:28.089Z,50.908096
2022-11-10T05:09:28.056Z,50.908092
2022-11-10T05:10:28.049Z,50.908134
2022-11-10T05:11:28.044Z,50.908131
2022-11-10T05:12:28.028Z,50.908100
2022-11-10T05:13:28.051Z,50.908062
2022-11-10T05:14:28.018Z,50.908112
2022-11-10T05:15:28.012Z,50.908070
2022-11-10T05:16:27.998Z,50.908073
2022-11-10T05:17:27.988Z,50.908085
2022-11-10T05:18:28.012Z,50.908062
2022-11-10T05:19:27.963Z,50.908092
2022-11-10T05:20:28.962Z,50.908119
2022-11-10T05:21:27.960Z,50.908138
2022-11-10T05:22:27.943Z,50.908131
2022-11-10T05:23:27.970Z,50.908112
2022-11-10T05:24:27.932Z,50.908115
2022-11-10T05:25:27.918Z,50.908108
2022-11-10T05:26:27.917Z,50.908115
2022-11-10T05:27:27.910Z,50.908123
2022-11-10T05:28:27.922Z,50.908142
2022-11-10T05:29:27.889Z,50.908100
2022-11-10T05:30:27.884Z,50.908169
2022-11-10T05:31:27.871Z,50.908127
2022-11-10T05:32:27.869Z,50.908123
2022-11-10T05:33:27.894Z,50.908134
2022-11-10T05:34:27.854Z,50.908096
2022-11-10T05:35:27.847Z,50.908077
2022-11-10T05:36:27.852Z,50.908073
2022-11-10T05:37:27.838Z,50.908089
2022-11-10T05:38:27.852Z,50.908043
2022-11-10T05:39:27.816Z,50.908104
2022-11-10T05:40:27.811Z,50.908127
2022-11-10T05:41:27.800Z,50.908134
2022-11-10T05:42:27.798Z,50.908173
2022-11-10T05:43:27.813Z,50.908154
2022-11-10T05:44:27.776Z,50.908146
2022-11-10T05:45:27.775Z,50.908138
2022-11-10T05:46:27.764Z,50.908131
2022-11-10T05:47:27.753Z,50.908176
2022-11-10T05:48:27.771Z,50.908131
2022-11-10T05:49:27.742Z,50.908138
2022-11-10T05:50:27.734Z,50.908123
2022-11-10T05:51:27.728Z,50.908165
2022-11-10T05:52:27.741Z,50.908119
2022-11-10T05:53:27.705Z,50.908127
2022-11-10T05:54:27.728Z,50.908154
2022-11-10T05:55:27.697Z,50.908142
2022-11-10T05:56:27.679Z,50.908092
2022-11-10T05:57:27.672Z,50.908073
2022-11-10T05:58:27.666Z,50.908138
2022-11-10T05:59:27.684Z,50.908161
2022-11-10T06:00:27.647Z,50.908119
2022-11-10T06:01:28.646Z,50.908176
2022-11-10T06:02:27.637Z,50.908134
2022-11-10T06:03:28.062Z,50.908108
2022-11-10T06:04:27.643Z,50.908134
2022-11-10T06:05:31.105Z,50.908031
2022-11-10T06:06:28.603Z,50.908085
2022-11-10T06:07:27.588Z,50.908184
2022-11-10T06:08:28.586Z,50.908115
2022-11-10T06:09:27.608Z,50.908089
2022-11-10T06:10:27.574Z,50.908073
2022-11-10T06:11:27.570Z,50.908131
2022-11-10T06:12:27.564Z,50.908154
2022-11-10T06:13:27.547Z,50.908157
2022-11-10T06:14:27.572Z,50.908092
2022-11-10T06:15:27.535Z,50.908127
2022-11-10T06:16:27.533Z,50.908142
2022-11-10T06:17:27.517Z,50.908012
2022-11-10T06:18:27.505Z,50.908039
2022-11-10T06:19:27.525Z,50.908092
2022-11-10T06:20:27.494Z,50.908096
2022-11-10T06:21:27.480Z,50.908016
2022-11-10T06:22:27.475Z,50.908070
2022-11-10T06:23:27.470Z,50.908054
2022-11-10T06:24:27.497Z,50.908035
2022-11-10T06:25:27.456Z,50.908089
2022-11-10T06:26:27.446Z,50.908096
2022-11-10T06:27:27.436Z,50.908112
2022-11-10T06:28:27.431Z,50.908115
2022-11-10T06:29:27.446Z,50.908073
2022-11-10T06:30:27.414Z,50.908112
2022-11-10T06:31:27.405Z,50.908108
2022-11-10T06:32:27.396Z,50.908081
2022-11-10T06:33:27.386Z,50.908096
2022-11-10T06:34:27.404Z,50.908134
2022-11-10T06:35:27.372Z,50.908127
2022-11-10T06:36:27.365Z,50.908108
2022-11-10T06:37:27.355Z,50.908173
2022-11-10T06:38:27.361Z,50.908150
2022-11-10T06:39:27.366Z,50.908123
2022-11-10T06:40:27.333Z,50.908131
2022-11-10T06:41:27.323Z,50.908176
2022-11-10T06:42:27.316Z,50.908127
2022-11-10T06:43:27.310Z,50.908127
2022-11-10T06:44:27.323Z,50.908138
2022-11-10T06:45:27.294Z,50.908131
2022-11-10T06:46:27.287Z,50.908112
2022-11-10T06:47:27.277Z,50.908092
2022-11-10T06:48:27.272Z,50.908146
2022-11-10T06:49:27.316Z,50.908138
2022-11-10T06:50:27.252Z,50.908123
2022-11-10T06:51:27.245Z,50.908146
2022-11-10T06:52:27.236Z,50.908146
2022-11-10T06:53:27.388Z,50.908077
2022-11-10T06:54:28.246Z,50.908146
2022-11-10T06:55:27.213Z,50.908115
2022-11-10T06:56:27.205Z,50.908119
2022-11-10T06:57:27.205Z,50.908207
2022-11-10T06:58:27.191Z,50.908218
2022-11-10T06:59:27.208Z,50.908119
2022-11-10T07:00:27.177Z,50.908115
2022-11-10T07:01:27.247Z,50.908081
2022-11-10T07:02:27.158Z,50.908073
2022-11-10T07:03:27.154Z,50.908092
2022-11-10T07:04:27.172Z,50.908100
2022-11-10T07:05:27.137Z,50.908161
2022-11-10T07:06:27.132Z,50.908127
2022-11-10T07:07:27.115Z,50.908089
2022-11-10T07:08:27.111Z,50.908051
2022-11-10T07:09:27.137Z,50.908115
2022-11-10T07:10:27.095Z,50.908108
2022-11-10T07:11:27.101Z,50.908085
2022-11-10T07:12:27.086Z,50.908218
2022-11-10T07:13:27.074Z,50.908146
2022-11-10T07:14:27.063Z,50.908115
2022-11-10T07:15:27.080Z,50.908123
2022-11-10T07:16:27.052Z,50.908157
2022-11-10T07:17:27.039Z,50.908104
2022-11-10T07:18:27.033Z,50.908146
2022-11-10T07:19:27.025Z,50.908119
2022-11-10T07:20:27.042Z,50.908031
2022-11-10T07:21:27.010Z,50.908089
2022-11-10T07:22:26.996Z,50.908100
2022-11-10T07:23:26.986Z,50.908100
2022-11-10T07:24:26.981Z,50.908070
2022-11-10T07:25:27.001Z,50.908096
2022-11-10T07:26:26.968Z,50.908085
2022-11-10T07:27:26.968Z,50.908112
2022-11-10T07:28:28.447Z,50.908112
2022-11-10T07:29:27.939Z,50.908104
2022-11-10T07:30:26.954Z,50.908112
2022-11-10T07:31:26.925Z,50.908127
2022-11-10T07:32:26.917Z,50.908089
2022-11-10T07:33:26.906Z,50.908062
2022-11-10T07:34:26.899Z,50.908123
2022-11-10T07:35:26.917Z,50.908142
2022-11-10T07:36:26.884Z,50.908085
2022-11-10T07:37:26.877Z,50.908096
2022-11-10T07:38:26.865Z,50.908127
2022-11-10T07:39:26.862Z,50.908108
2022-11-10T07:40:26.877Z,50.908154
2022-11-10T07:41:26.841Z,50.908272
2022-11-10T07:42:26.840Z,50.908272
2022-11-10T07:43:26.827Z,50.908272
2022-11-10T07:44:26.849Z,50.908260
2022-11-10T07:45:26.813Z,50.908134
2022-11-10T07:46:26.809Z,50.908134
2022-11-10T07:47:26.801Z,50.908142
2022-11-10T07:48:26.788Z,50.908127
2022-11-10T07:49:26.809Z,50.908134
2022-11-10T07:50:26.799Z,50.908142
2022-11-10T07:51:26.768Z,50.908123
2022-11-10T07:52:26.761Z,50.908131
2022-11-10T07:53:26.757Z,50.908123
2022-11-10T07:54:26.767Z,50.908150
2022-11-10T07:55:26.734Z,50.908173
2022-11-10T07:56:26.734Z,50.908161
2022-11-10T07:57:26.724Z,50.908142
2022-11-10T07:58:26.715Z,50.908131
2022-11-10T07:59:26.737Z,50.908131
2022-11-10T08:00:26.744Z,50.908115
2022-11-10T08:01:26.724Z,50.908131
2022-11-10T08:02:26.685Z,50.908123
2022-11-10T08:03:26.796Z,50.908108
2022-11-10T08:04:26.691Z,50.908119
2022-11-10T08:05:26.661Z,50.908123
2022-11-10T08:06:27.220Z,50.908131
2022-11-10T08:07:26.724Z,50.908138
2022-11-10T08:08:26.641Z,50.908165
2022-11-10T08:09:26.651Z,50.908180
2022-11-10T08:10:26.619Z,50.908138
2022-11-10T08:11:26.616Z,50.908142
2022-11-10T08:12:29.860Z,50.908173
2022-11-10T08:13:27.598Z,50.908096
2022-11-10T08:14:26.615Z,50.908096
2022-11-10T08:15:26.586Z,50.908157
2022-11-10T08:16:26.573Z,50.908150
2022-11-10T08:17:26.567Z,50.908089
2022-11-10T08:18:30.825Z,50.908108
2022-11-10T08:19:28.574Z,50.908115
2022-11-10T08:20:26.633Z,50.908123
2022-11-10T08:21:26.538Z,50.908195
2022-11-10T08:22:26.530Z,50.908138
2022-11-10T08:23:26.511Z,50.908115
2022-11-10T08:24:27.541Z,50.908150
2022-11-10T08:25:31.616Z,50.908165
2022-11-10T08:26:28.490Z,50.908150
2022-11-10T08:27:26.486Z,50.908154
2022-11-10T08:28:26.481Z,50.908161
2022-11-10T08:29:26.498Z,50.908169
2022-11-10T08:30:26.507Z,50.908146
2022-11-10T08:31:26.453Z,50.908165
2022-11-10T08:32:26.460Z,50.908234
2022-11-10T08:33:26.625Z,50.908226
2022-11-10T08:34:26.453Z,50.908192
2022-11-10T08:35:26.454Z,50.908157
2022-11-10T08:36:26.422Z,50.908192
2022-11-10T08:37:26.411Z,50.908112
2022-11-10T08:38:26.403Z,50.908184
2022-11-10T08:39:38.521Z,50.908104
2022-11-10T08:40:28.475Z,50.907959
2022-11-10T08:41:26.381Z,50.907841
2022-11-10T08:42:26.374Z,50.908039
2022-11-10T08:43:26.461Z,50.907677
2022-11-10T08:44:26.356Z,50.907871
2022-11-10T08:45:26.361Z,50.908184
2022-11-10T08:46:27.340Z,50.908367
2022-11-10T08:47:26.327Z,50.908340
2022-11-10T08:48:26.321Z,50.908298
2022-11-10T08:49:26.308Z,50.908241
2022-11-10T08:50:26.331Z,50.908222
2022-11-10T08:51:26.299Z,50.908138
2022-11-10T08:52:26.291Z,50.908165
2022-11-10T08:53:26.520Z,50.908142
2022-11-10T08:54:26.278Z,50.908131
2022-11-10T08:55:26.291Z,50.908085
2022-11-10T08:56:26.260Z,50.908218
2022-11-10T08:57:26.250Z,50.908131
2022-11-10T08:58:26.245Z,50.908108
2022-11-10T08:59:26.234Z,50.908215
2022-11-10T09:00:26.256Z,50.908199
2022-11-10T09:01:26.217Z,50.908077
2022-11-10T09:02:26.210Z,50.908092
2022-11-10T09:03:26.685Z,50.908173
2022-11-10T09:04:26.228Z,50.907921
2022-11-10T09:05:26.210Z,50.908108
2022-11-10T09:06:26.180Z,50.908157
2022-11-10T09:07:26.167Z,50.908157
2022-11-10T09:08:26.177Z,50.908100
2022-11-10T09:09:26.158Z,50.908108
2022-11-10T09:10:26.171Z,50.908043
2022-11-10T09:11:26.140Z,50.908142
2022-11-10T09:12:26.130Z,50.908134
2022-11-10T09:13:29.801Z,50.908253
2022-11-10T09:14:27.113Z,50.907993
2022-11-10T09:15:26.136Z,50.908054
2022-11-10T09:16:26.100Z,50.908134
2022-11-10T09:17:26.091Z,50.908146
2022-11-10T09:18:26.087Z,50.908073
2022-11-10T09:19:26.151Z,50.908184
2022-11-10T09:20:26.092Z,50.908073
2022-11-10T09:21:26.057Z,50.908115
2022-11-10T09:22:26.051Z,50.908070
2022-11-10T09:23:26.183Z,50.908134
2022-11-10T09:24:31.134Z,50.908108
2022-11-10T09:25:28.051Z,50.908119
2022-11-10T09:26:26.019Z,50.908104
2022-11-10T09:27:26.018Z,50.908112
2022-11-10T09:28:26.004Z,50.908127
2022-11-10T09:29:26.005Z,50.908119
2022-11-10T09:30:26.019Z,50.908096
2022-11-10T09:31:25.987Z,50.908092
2022-11-10T09:32:25.976Z,50.908138
2022-11-10T09:33:26.327Z,50.908138
2022-11-10T09:34:25.967Z,50.908077
2022-11-10T09:35:25.980Z,50.908100
2022-11-10T09:36:25.949Z,50.908112
2022-11-10T09:37:25.937Z,50.908085
2022-11-10T09:38:25.983Z,50.908150
2022-11-10T09:39:25.919Z,50.908165
2022-11-10T09:40:25.962Z,50.908096
2022-11-10T09:41:25.904Z,50.908085
2022-11-10T09:42:25.899Z,50.908092
2022-11-10T09:43:25.893Z,50.908131
2022-11-10T09:44:25.880Z,50.908146
2022-11-10T09:45:25.903Z,50.908146
2022-11-10T09:46:25.862Z,50.908150
2022-11-10T09:48:27.851Z,50.908142
2022-11-10T09:49:25.843Z,50.908195
2022-11-10T09:50:25.873Z,50.908127
2022-11-10T09:51:25.852Z,50.908123
2022-11-10T09:52:25.817Z,50.908112
2022-11-10T09:53:25.819Z,50.908134
2022-11-10T09:54:25.805Z,50.908131
2022-11-10T09:55:25.839Z,50.908169
2022-11-10T09:56:25.812Z,50.908119
2022-11-10T09:57:25.786Z,50.908169
2022-11-10T09:58:25.775Z,50.908127
2022-11-10T09:59:25.763Z,50.908199
2022-11-10T10:00:25.821Z,50.908157
2022-11-10T10:01:26.811Z,50.908165
2022-11-10T10:02:25.737Z,50.908188
2022-11-10T10:03:25.730Z,50.908157
2022-11-10T10:04:25.722Z,50.908150
2022-11-10T10:05:25.751Z,50.908188
2022-11-10T10:06:30.550Z,50.908173
2022-11-10T10:07:26.743Z,50.908150
2022-11-10T10:08:25.751Z,50.908165
2022-11-10T10:09:25.681Z,50.908184
2022-11-10T10:10:25.753Z,50.908195
2022-11-10T10:11:25.667Z,50.908176
2022-11-10T10:12:25.650Z,50.908161
2022-11-10T10:13:25.647Z,50.908161
2022-11-10T10:14:25.641Z,50.908207
2022-11-10T10:15:26.005Z,50.908180
2022-11-10T10:16:26.648Z,50.908257
2022-11-10T10:17:27.125Z,50.908211
2022-11-10T10:18:26.607Z,50.908188
2022-11-10T10:19:25.599Z,50.908119
2022-11-10T10:20:25.632Z,50.908176
2022-11-10T10:21:25.608Z,50.908215
2022-11-10T10:22:25.573Z,50.908180
2022-11-10T10:23:46.825Z,50.908169
2022-11-10T10:24:27.554Z,50.908192
2022-11-10T10:25:25.550Z,50.908180
2022-11-10T10:26:25.564Z,50.908222
2022-11-10T10:27:25.540Z,50.908199
2022-11-10T10:28:25.840Z,50.908165
2022-11-10T10:29:25.518Z,50.908203
2022-11-10T10:30:25.508Z,50.908222
2022-11-10T10:31:25.524Z,50.908161
2022-11-10T10:32:25.599Z,50.908173
2022-11-10T10:33:25.484Z,50.908070
2022-11-10T10:34:25.480Z,50.908180
2022-11-10T10:35:25.504Z,50.908154
2022-11-10T10:36:25.488Z,50.908161
2022-11-10T10:37:25.450Z,50.908146
2022-11-10T10:38:25.596Z,50.908154
2022-11-10T10:39:25.436Z,50.908173
2022-11-10T10:40:25.465Z,50.908195
2022-11-10T10:41:25.422Z,50.908215
2022-11-10T10:42:25.412Z,50.908173
2022-11-10T10:43:25.440Z,50.908245
2022-11-10T10:44:25.401Z,50.908192
2022-11-10T10:45:25.451Z,50.908184
2022-11-10T10:46:25.405Z,50.908215
2022-11-10T10:47:25.366Z,50.908195
2022-11-10T10:48:25.361Z,50.908169
2022-11-10T10:49:30.178Z,50.908184
2022-11-10T10:50:27.378Z,50.908195
2022-11-10T10:51:25.351Z,50.908211
2022-11-10T10:52:25.501Z,50.908211
2022-11-10T10:53:25.324Z,50.908188
2022-11-10T10:54:25.317Z,50.908161
2022-11-10T10:55:25.305Z,50.908184
2022-11-10T10:56:25.321Z,50.908138
2022-11-10T10:57:25.294Z,50.908165
2022-11-10T10:58:25.861Z,50.908188
2022-11-10T10:59:25.277Z,50.908184
2022-11-10T11:00:25.272Z,50.908146
2022-11-10T11:01:25.371Z,50.908199
2022-11-10T11:02:25.253Z,50.908226
2022-11-10T11:03:25.251Z,50.908154
2022-11-10T11:04:25.241Z,50.908203
2022-11-10T11:05:25.264Z,50.908138
2022-11-10T11:06:25.261Z,50.908146
2022-11-10T11:07:25.215Z,50.908180
2022-11-10T11:08:25.462Z,50.908112
2022-11-10T11:09:25.202Z,50.908077
2022-11-10T11:10:25.189Z,50.908180
2022-11-10T11:11:25.221Z,50.908253
2022-11-10T11:12:25.174Z,50.908184
2022-11-10T11:13:25.181Z,50.908211
2022-11-10T11:14:25.158Z,50.908127
2022-11-10T11:15:25.153Z,50.908085
2022-11-10T11:16:25.171Z,50.908276
2022-11-10T11:17:25.202Z,50.908241
2022-11-10T11:18:25.438Z,50.908260
2022-11-10T11:19:25.123Z,50.908180
2022-11-10T11:20:25.111Z,50.908192
2022-11-10T11:21:25.138Z,50.908230
2022-11-10T11:22:25.127Z,50.908203
2022-11-10T11:23:25.087Z,50.908169
2022-11-10T11:24:25.079Z,50.908134
2022-11-10T11:25:25.074Z,50.908230
2022-11-10T11:26:25.065Z,50.908195
2022-11-10T11:27:25.080Z,50.908092
2022-11-10T11:28:25.343Z,50.908142
2022-11-10T11:29:25.046Z,50.908089
2022-11-10T11:30:25.035Z,50.908108
2022-11-10T11:31:25.026Z,50.908176
2022-11-10T11:32:25.043Z,50.908237